Time;durP1;ratioP1;P1;durP2;ratioP2;P2;SDS_P1;SDS_P2;PMS_P1;PMS_P2;Temp;Humidity;BMP_temperature;BMP_pressure;BME280_temperature;BME280_humidity;BME280_pressure;Samples;Min_cycle;Max_cycle;Signal;HPM_P1;HPM_P2
2021/12/05 00:23:39;;;;;;;11.73;9.38;;;;;;;1.76;100.00;100035.03;4879677;29;20209;-79
2021/12/05 00:26:07;;;;;;;9.13;7.95;;;;;;;1.65;100.00;100033.41;4878520;29;20564;-79
2021/12/05 00:41:49;;;;;;;9.48;7.93;;;;;;;1.39;100.00;100040.84;4879703;29;20303;-80
2021/12/05 01:10:47;;;;;;;8.23;7.30;;;;;;;0.95;100.00;100061.59;4893793;29;20291;-80
2021/12/05 01:15:41;;;;;;;7.80;7.00;;;;;;;0.87;100.00;100076.63;4894030;29;20289;-80
2021/12/05 01:18:12;;;;;;;8.38;7.57;;;;;;;0.85;100.00;100074.91;4863571;29;20189;-81
2021/12/05 01:20:46;;;;;;;9.13;7.07;;;;;;;0.82;100.00;100079.31;4878593;29;20207;-80
2021/12/05 01:31:15;;;;;;;9.88;8.00;;;;;;;0.44;100.00;100097.25;4894431;29;20197;-80
2021/12/05 01:36:18;;;;;;;9.38;7.63;;;;;;;0.31;100.00;100104.41;4878860;29;20173;-79
2021/12/05 01:39:12;;;;;;;10.75;8.30;;;;;;;0.33;100.00;100102.66;4900718;29;20208;-80
2021/12/05 01:52:43;;;;;;;8.93;7.63;;;;;;;0.02;100.00;100123.91;4878822;29;20177;-83
2021/12/05 02:11:48;;;;;;;6.88;6.18;;;;;;;-0.08;100.00;100127.50;4878687;29;20189;-80
2021/12/05 02:41:22;;;;;;;4.93;4.43;;;;;;;-0.27;100.00;100142.53;4842271;29;20257;-80
2021/12/05 02:44:03;;;;;;;4.70;3.92;;;;;;;-0.30;100.00;100142.56;4859349;29;20204;-79
2021/12/05 02:46:30;;;;;;;4.65;4.25;;;;;;;-0.33;100.00;100145.19;4859989;29;20201;-80
2021/12/05 02:49:03;;;;;;;5.75;4.20;;;;;;;-0.32;100.00;100145.19;4860771;29;20178;-80
2021/12/05 02:51:32;;;;;;;3.85;3.55;;;;;;;-0.36;100.00;100151.34;4858448;29;20628;-80
2021/12/05 02:54:09;;;;;;;4.68;3.92;;;;;;;-0.37;100.00;100144.34;4858863;29;20197;-80
2021/12/05 02:56:41;;;;;;;4.10;3.70;;;;;;;-0.37;100.00;100152.25;4862076;29;20154;-80
2021/12/05 03:01:50;;;;;;;4.00;3.60;;;;;;;-0.28;100.00;100159.22;4861363;29;20174;-79
2021/12/05 03:04:16;;;;;;;3.67;3.15;;;;;;;-0.27;100.00;100147.78;4850306;29;20219;-79
2021/12/05 03:06:50;;;;;;;4.25;3.72;;;;;;;-0.30;100.00;100153.09;4867943;29;20186;-79
2021/12/05 03:09:16;;;;;;;4.60;3.45;;;;;;;-0.27;100.00;100153.06;4852694;29;20186;-78
2021/12/05 03:11:43;;;;;;;3.63;3.33;;;;;;;-0.32;100.00;100145.19;4865236;29;20174;-80
2021/12/05 03:14:09;;;;;;;4.03;3.22;;;;;;;-0.28;100.00;100167.97;4847417;29;20770;-79
2021/12/05 03:16:36;;;;;;;3.83;3.53;;;;;;;-0.26;100.00;100150.44;4849131;29;20179;-79
2021/12/05 03:19:05;;;;;;;3.85;3.45;;;;;;;-0.26;100.00;100167.97;4865064;29;20621;-79
2021/12/05 03:21:31;;;;;;;3.70;3.40;;;;;;;-0.24;100.00;100166.19;4848288;29;20225;-79
2021/12/05 03:23:57;;;;;;;3.55;3.25;;;;;;;-0.23;100.00;100168.81;4863706;29;20254;-79
2021/12/05 03:26:28;;;;;;;3.40;3.10;;;;;;;-0.26;100.00;100162.72;4848400;29;20301;-79
2021/12/05 03:28:56;;;;;;;3.45;3.15;;;;;;;-0.27;100.00;100171.47;4863389;29;20178;-79
2021/12/05 03:31:25;;;;;;;3.95;3.55;;;;;;;-0.26;100.00;100170.63;4848474;29;20675;-79
2021/12/05 03:33:53;;;;;;;3.75;3.45;;;;;;;-0.26;100.00;100179.38;4833035;29;20622;-80
2021/12/05 03:36:19;;;;;;;4.07;3.50;;;;;;;-0.26;100.00;100174.13;4848357;29;20604;-79
2021/12/05 03:38:47;;;;;;;3.90;3.53;;;;;;;-0.24;100.00;100182.88;4863163;29;20186;-79
2021/12/05 03:41:14;;;;;;;4.20;3.80;;;;;;;-0.24;100.00;100174.09;4865805;29;20576;-80
2021/12/05 03:43:44;;;;;;;6.00;3.85;;;;;;;-0.17;100.00;100188.13;4862530;29;20237;-79
2021/12/05 03:46:11;;;;;;;5.28;4.18;;;;;;;-0.25;100.00;100181.13;4864011;29;20238;-79
2021/12/05 03:48:42;;;;;;;5.00;4.50;;;;;;;-0.23;100.00;100181.13;4863040;29;20178;-80
2021/12/05 03:51:11;;;;;;;4.50;4.10;;;;;;;-0.17;100.00;100189.00;4832167;29;20202;-79
2021/12/05 03:53:40;;;;;;;4.35;3.95;;;;;;;-0.16;100.00;100192.50;4864512;29;20190;-79
2021/12/05 03:56:08;;;;;;;4.72;4.28;;;;;;;-0.14;100.00;100194.22;4869145;29;20555;-78
2021/12/05 03:58:38;;;;;;;5.22;4.50;;;;;;;-0.13;100.00;100187.19;4870066;29;20633;-78
2021/12/05 04:01:09;;;;;;;5.20;4.70;;;;;;;-0.16;100.00;100200.38;4852809;29;20246;-79
2021/12/05 04:03:38;;;;;;;5.20;4.43;;;;;;;-0.12;100.00;100203.00;4867839;29;20193;-79
2021/12/05 04:06:06;;;;;;;5.70;5.20;;;;;;;-0.10;100.00;100205.63;4866704;29;20190;-78
2021/12/05 04:08:33;;;;;;;6.13;5.35;;;;;;;-0.16;100.00;100198.63;4867027;29;20257;-78
2021/12/05 04:11:05;;;;;;;5.65;4.95;;;;;;;-0.09;100.00;100196.84;4849317;29;20245;-78
2021/12/05 04:13:31;;;;;;;5.78;5.18;;;;;;;-0.05;100.00;100214.38;4850903;29;20210;-79
2021/12/05 04:16:06;;;;;;;6.20;5.25;;;;;;;-0.09;100.00;100210.00;4857351;29;20190;-78
2021/12/05 04:18:32;;;;;;;6.00;5.40;;;;;;;-0.06;100.00;100221.41;4885976;29;20635;-78
2021/12/05 04:21:01;;;;;;;5.65;5.05;;;;;;;-0.02;100.00;100222.28;4902771;29;20215;-78
2021/12/05 04:23:27;;;;;;;6.72;5.45;;;;;;;-0.05;100.00;100223.16;4904004;29;20201;-78
2021/12/05 04:25:53;;;;;;;7.30;5.35;;;;;;;-0.05;100.00;100231.03;4901658;29;20177;-79
2021/12/05 04:28:21;;;;;;;5.47;4.97;;;;;;;-0.01;100.00;100231.91;4887756;29;20545;-79
2021/12/05 04:30:47;;;;;;;6.03;5.10;;;;;;;-0.03;100.00;100247.72;4897546;29;20212;-79
2021/12/05 04:33:13;;;;;;;5.75;4.93;;;;;;;-0.03;100.00;100239.81;4873591;29;20181;-79
2021/12/05 04:35:39;;;;;;;5.70;4.90;;;;;;;-0.02;100.00;100248.63;4867059;29;20188;-79
2021/12/05 04:38:06;;;;;;;6.03;5.22;;;;;;;0.10;100.00;100252.94;4890345;29;20176;-79
2021/12/05 04:40:33;;;;;;;5.30;4.80;;;;;;;0.05;100.00;100262.63;4887767;29;20201;-79
2021/12/05 04:43:01;;;;;;;6.05;5.05;;;;;;;0.06;100.00;100259.09;4871796;29;20196;-79
2021/12/05 04:45:30;;;;;;;5.22;4.72;;;;;;;0.04;100.00;100252.97;4890911;29;20189;-79
2021/12/05 04:48:01;;;;;;;7.18;5.03;;;;;;;0.06;100.00;100262.59;4873758;29;20281;-79
2021/12/05 04:50:29;;;;;;;5.55;5.00;;;;;;;0.05;100.00;100266.13;4869776;29;20224;-79
2021/12/05 04:52:55;;;;;;;5.32;4.80;;;;;;;0.02;100.00;100279.28;4874613;29;20188;-79
2021/12/05 04:55:23;;;;;;;6.30;4.75;;;;;;;0.00;100.00;100267.91;4856175;29;20209;-79
2021/12/05 04:57:52;;;;;;;9.30;5.95;;;;;;;0.00;100.00;100273.19;4865989;29;20169;-80
2021/12/05 05:00:28;;;;;;;5.90;5.30;;;;;;;-0.02;100.00;100277.59;4865855;29;20189;-79
2021/12/05 05:02:56;;;;;;;6.05;5.20;;;;;;;-0.04;100.00;100284.59;4883395;29;20204;-80
2021/12/05 05:05:24;;;;;;;5.90;5.00;;;;;;;-0.05;100.00;100281.06;4865978;29;20247;-79
2021/12/05 05:07:50;;;;;;;5.68;4.95;;;;;;;-0.02;100.00;100293.38;4882474;29;20236;-80
2021/12/05 05:10:22;;;;;;;5.22;4.63;;;;;;;-0.02;100.00;100304.78;4866064;29;20303;-79
2021/12/05 05:12:48;;;;;;;6.40;5.05;;;;;;;-0.05;100.00;100288.09;4880906;29;20178;-79
2021/12/05 05:15:18;;;;;;;6.13;5.20;;;;;;;-0.04;100.00;100303.03;4865317;29;20184;-80
2021/12/05 05:17:44;;;;;;;5.95;5.35;;;;;;;-0.02;100.00;100303.91;4879836;29;20186;-80
2021/12/05 05:20:34;;;;;;;5.90;5.30;;;;;;;-0.05;100.00;100299.50;4880611;29;20197;-79
2021/12/05 05:38:59;;;;;;;6.38;5.00;;;;;;;0.02;100.00;100318.78;4881070;29;20209;-79
2021/12/05 05:39:16;;;;;;;7.13;5.93;;;;;;;0.06;100.00;100325.81;4888154;29;20201;-79
2021/12/05 05:42:06;;;;;;;6.28;5.65;;;;;;;0.06;100.00;100331.06;4887170;29;20221;-79
2021/12/05 05:44:37;;;;;;;7.55;6.22;;;;;;;0.11;100.00;100334.59;4887308;29;20189;-79
2021/12/05 05:49:48;;;;;;;9.45;7.03;;;;;;;0.11;100.00;100342.50;4886833;29;20189;-79
2021/12/05 05:52:15;;;;;;;8.55;5.93;;;;;;;0.07;100.00;100330.22;4884535;29;20540;-79
2021/12/05 05:54:44;;;;;;;6.47;5.22;;;;;;;0.11;100.00;100334.59;4852843;29;20193;-79
2021/12/05 05:57:23;;;;;;;8.40;6.32;;;;;;;0.16;100.00;100347.75;4869887;29;20229;-79
2021/12/05 06:00:13;;;;;;;6.93;6.22;;;;;;;0.12;100.00;100348.63;4885789;29;20197;-79
2021/12/05 06:05:28;;;;;;;6.43;5.78;;;;;;;0.17;100.00;100362.66;4885813;29;20212;-79
2021/12/05 06:07:53;;;;;;;7.13;6.30;;;;;;;0.15;100.00;100374.94;4885298;29;20686;-79
2021/12/05 06:10:22;;;;;;;7.97;6.22;;;;;;;0.17;100.00;100367.91;4883778;29;20197;-79
2021/12/05 06:12:49;;;;;;;8.18;6.50;;;;;;;0.13;100.00;100385.50;4869334;29;20619;-79
2021/12/05 06:15:18;;;;;;;7.72;6.20;;;;;;;0.19;100.00;100384.59;4885805;29;20179;-79
2021/12/05 06:17:44;;;;;;;6.57;5.88;;;;;;;0.15;100.00;100394.28;4884900;29;20560;-79
2021/12/05 06:20:13;;;;;;;6.72;5.32;;;;;;;0.14;100.00;100384.63;4864918;29;20228;-80
2021/12/05 06:22:38;;;;;;;6.13;5.47;;;;;;;0.26;100.00;100391.59;4877016;29;20201;-80
2021/12/05 06:25:07;;;;;;;8.35;5.82;;;;;;;0.17;100.00;100397.75;4878524;29;20178;-79
2021/12/05 06:27:33;;;;;;;8.23;6.07;;;;;;;0.20;100.00;100394.28;4876692;29;20177;-80
2021/12/05 06:30:11;;;;;;;9.13;6.15;;;;;;;0.13;100.00;100387.25;4878401;29;20205;-80
2021/12/05 06:38:10;;;;;;;8.43;7.22;;;;;;;0.18;100.00;100404.81;4876509;29;20243;-78
2021/12/05 06:41:05;;;;;;;7.47;6.57;;;;;;;0.16;100.00;100403.94;4853430;29;20458;-79
2021/12/05 06:46:28;;;;;;;10.10;7.40;;;;;;;0.13;100.00;100422.38;4868479;29;20201;-79
2021/12/05 06:48:50;;;;;;;7.55;6.85;;;;;;;0.20;100.00;100424.13;4864868;29;20186;-79
2021/12/05 06:51:23;;;;;;;8.98;7.47;;;;;;;0.13;100.00;100426.75;4862789;29;20205;-80
2021/12/05 06:53:49;;;;;;;8.57;7.40;;;;;;;0.12;100.00;100436.41;4864267;29;20212;-79
2021/12/05 06:56:15;;;;;;;8.40;7.20;;;;;;;0.14;100.00;100432.03;4863936;29;20663;-80
2021/12/05 06:58:41;;;;;;;9.40;8.13;;;;;;;0.12;100.00;100430.28;4849382;29;20198;-79
2021/12/05 07:01:10;;;;;;;8.93;7.97;;;;;;;0.14;100.00;100431.16;4865610;29;20201;-79
2021/12/05 07:03:39;;;;;;;11.70;8.85;;;;;;;0.12;100.00;100444.31;4848255;29;20201;-79
2021/12/05 07:06:18;;;;;;;10.13;8.13;;;;;;;0.17;100.00;100455.72;4857559;29;20255;-79
2021/12/05 07:08:43;;;;;;;11.60;9.32;;;;;;;0.15;100.00;100446.06;4851115;29;20227;-79
2021/12/05 07:21:45;;;;;;;11.55;9.90;;;;;;;0.24;100.00;100472.44;4819979;29;20227;-79
2021/12/05 07:24:28;;;;;;;13.20;10.40;;;;;;;0.28;100.00;100473.28;4869643;29;20204;-79
2021/12/05 07:42:52;;;;;;;13.82;11.13;;;;;;;0.19;100.00;100500.50;4882789;29;20663;-79
2021/12/05 07:45:23;;;;;;;13.75;11.05;;;;;;;0.16;100.00;100496.13;4885408;29;20204;-79
2021/12/05 07:47:53;;;;;;;14.32;11.13;;;;;;;0.19;100.00;100504.00;4853615;29;20277;-79
2021/12/05 07:50:24;;;;;;;13.45;10.18;;;;;;;0.23;100.00;100501.41;4884199;29;20209;-80
2021/12/05 07:52:53;;;;;;;14.80;11.18;;;;;;;0.22;100.00;100515.44;4880544;29;20953;-81
2021/12/05 07:55:27;;;;;;;14.45;11.70;;;;;;;0.21;100.00;100517.19;4881405;29;20401;-79
2021/12/05 08:00:34;;;;;;;13.43;10.80;;;;;;;0.27;100.00;100526.88;4882801;29;20304;-79
2021/12/05 08:16:45;;;;;;;13.65;10.73;;;;;;;0.39;100.00;100551.44;4864002;29;20620;-79
2021/12/05 08:19:10;;;;;;;12.73;10.60;;;;;;;0.40;100.00;100562.84;4863792;29;20174;-79
2021/12/05 08:21:36;;;;;;;12.80;10.73;;;;;;;0.44;100.00;100554.06;4875895;29;20204;-79
2021/12/05 08:24:02;;;;;;;15.95;10.02;;;;;;;0.46;100.00;100560.22;4865082;29;20298;-79
2021/12/05 08:26:32;;;;;;;12.98;10.35;;;;;;;0.46;100.00;100564.59;4880248;29;20189;-81
2021/12/05 08:29:12;;;;;;;13.95;9.93;;;;;;;0.44;100.00;100564.63;4860822;29;20174;-79
2021/12/05 08:37:03;;;;;;;12.38;10.38;;;;;;;0.50;100.00;100569.84;4885237;29;20189;-79
2021/12/05 08:45:13;;;;;;;11.48;9.60;;;;;;;0.57;100.00;100582.16;4863328;29;20651;-80
2021/12/05 09:21:10;;;;;;;14.98;11.18;;;;;;;0.85;100.00;100648.03;4862259;29;20693;-77
2021/12/05 10:15:17;;;;;;;15.55;12.80;;;;;;;0.97;100.00;100723.66;4878427;29;20182;-78
2021/12/05 10:27:08;;;;;;;18.50;12.43;;;;;;;0.82;100.00;100729.78;4878210;29;20552;-80
2021/12/05 10:37:48;;;;;;;19.65;13.30;;;;;;;0.89;100.00;100736.81;4876232;29;20177;-79
2021/12/05 10:40:20;;;;;;;16.23;12.93;;;;;;;0.99;100.00;100740.34;4878225;29;20312;-78
2021/12/05 10:42:50;;;;;;;16.13;13.25;;;;;;;0.97;100.00;100739.47;4878370;29;20287;-78
2021/12/05 10:45:18;;;;;;;17.35;13.15;;;;;;;0.95;100.00;100746.50;4876887;29;20192;-78
2021/12/05 10:47:50;;;;;;;15.43;12.43;;;;;;;0.95;100.00;100759.69;4874427;29;20184;-78
2021/12/05 10:50:30;;;;;;;15.80;13.55;;;;;;;0.98;100.00;100765.84;4879257;29;20216;-80
2021/12/05 10:53:50;;;;;;;14.38;12.07;;;;;;;1.00;100.00;100773.75;4902567;29;20226;-79
2021/12/05 10:56:23;;;;;;;15.73;12.80;;;;;;;1.03;100.00;100771.13;4788402;30;20202;-78
2021/12/05 10:59:03;;;;;;;13.98;11.68;;;;;;;1.01;100.00;100775.53;4853099;29;20261;-79
2021/12/05 11:01:38;;;;;;;15.60;11.88;;;;;;;1.10;100.00;100783.44;4858558;29;20310;-80
2021/12/05 11:04:23;;;;;;;15.27;12.82;;;;;;;0.97;100.00;100777.28;4842841;29;20577;-81
2021/12/05 11:06:54;;;;;;;13.73;11.40;;;;;;;1.06;100.00;100786.06;4862585;29;20565;-80
2021/12/05 11:09:36;;;;;;;13.57;11.32;;;;;;;1.02;100.00;100782.53;4863626;29;20170;-80
2021/12/05 11:12:08;;;;;;;12.85;10.57;;;;;;;1.02;100.00;100782.53;4844529;29;20189;-80
2021/12/05 11:14:36;;;;;;;13.20;10.90;;;;;;;0.99;100.00;100790.47;4860660;29;20170;-80
2021/12/05 11:17:06;;;;;;;12.93;10.48;;;;;;;0.97;100.00;100793.09;4845948;29;20178;-80
2021/12/05 11:19:38;;;;;;;13.60;10.95;;;;;;;0.92;100.00;100800.16;4862600;29;20651;-80
2021/12/05 11:22:10;;;;;;;12.98;10.32;;;;;;;0.98;100.00;100786.06;4863981;29;20599;-80
2021/12/05 11:24:40;;;;;;;11.55;10.20;;;;;;;0.96;100.00;100790.44;4862786;29;20179;-80
2021/12/05 11:27:14;;;;;;;12.77;10.20;;;;;;;0.94;100.00;100797.47;4847302;29;20166;-80
2021/12/05 11:29:46;;;;;;;11.35;10.00;;;;;;;0.95;100.00;100800.13;4862636;29;20767;-80
2021/12/05 11:32:16;;;;;;;11.57;10.13;;;;;;;1.02;100.00;100803.66;4864241;29;20258;-79
2021/12/05 11:34:42;;;;;;;11.63;9.77;;;;;;;0.97;100.00;100805.41;4863217;29;20182;-79
2021/12/05 11:37:08;;;;;;;12.02;9.25;;;;;;;0.97;100.00;100822.13;4864023;29;20182;-80
2021/12/05 11:39:33;;;;;;;10.23;9.18;;;;;;;0.96;100.00;100816.81;4864146;29;20166;-80
2021/12/05 11:41:59;;;;;;;10.27;8.68;;;;;;;0.87;100.00;100816.81;4847357;29;20174;-80
2021/12/05 11:44:26;;;;;;;11.50;9.52;;;;;;;0.98;100.00;100825.63;4864249;29;20202;-80
2021/12/05 11:46:52;;;;;;;9.23;8.18;;;;;;;0.94;100.00;100834.41;4862627;29;20190;-80
2021/12/05 11:49:21;;;;;;;9.45;8.30;;;;;;;0.96;100.00;100819.47;4846298;29;20708;-82
2021/12/05 11:51:55;;;;;;;8.77;7.63;;;;;;;0.95;100.00;100815.09;4861900;29;20188;-80
2021/12/05 11:54:39;;;;;;;9.43;8.43;;;;;;;0.93;100.00;100827.38;4872378;29;20626;-80
2021/12/05 11:57:12;;;;;;;9.20;8.07;;;;;;;0.95;100.00;100823.00;4865560;29;20179;-80
2021/12/05 11:59:43;;;;;;;8.98;7.32;;;;;;;0.84;100.00;100832.66;4882410;29;20162;-82
2021/12/05 12:02:33;;;;;;;14.57;10.27;;;;;;;0.91;100.00;100832.66;4881630;29;20212;-80
2021/12/05 12:05:03;;;;;;;9.38;7.07;;;;;;;0.90;100.00;100835.31;4880982;29;20193;-80
2021/12/05 12:07:43;;;;;;;7.90;7.13;;;;;;;0.96;100.00;100848.47;4880698;29;20187;-81
2021/12/05 12:10:26;;;;;;;9.82;8.00;;;;;;;1.00;100.00;100853.75;4896714;29;20281;-79
2021/12/05 12:12:56;;;;;;;9.38;7.85;;;;;;;0.91;100.00;100850.25;4880452;29;20162;-80
2021/12/05 12:15:24;;;;;;;8.15;7.05;;;;;;;0.97;100.00;100859.06;4896676;29;20276;-81
2021/12/05 12:17:51;;;;;;;7.65;6.50;;;;;;;1.00;100.00;100856.41;4895801;29;20707;-80
2021/12/05 12:20:22;;;;;;;7.53;6.65;;;;;;;1.01;100.00;100860.81;4864684;29;20197;-81
2021/12/05 12:22:50;;;;;;;9.27;6.10;;;;;;;0.94;100.00;100855.50;4896275;29;20193;-79
2021/12/05 12:25:23;;;;;;;8.05;6.07;;;;;;;0.88;100.00;100851.13;4880948;29;20212;-80
2021/12/05 12:27:49;;;;;;;7.18;6.25;;;;;;;0.84;100.00;100859.91;4865150;29;20208;-80
2021/12/05 12:30:24;;;;;;;7.18;6.47;;;;;;;0.91;100.00;100871.34;4881953;29;20264;-80
2021/12/05 12:32:54;;;;;;;8.43;6.22;;;;;;;0.90;100.00;100873.13;4882817;29;20638;-80
2021/12/05 12:35:26;;;;;;;8.32;6.78;;;;;;;0.81;100.00;100868.69;4881072;29;20561;-80
2021/12/05 12:38:10;;;;;;;8.63;6.35;;;;;;;0.87;100.00;100864.31;4881496;29;20628;-81
2021/12/05 12:40:44;;;;;;;6.20;5.55;;;;;;;0.79;100.00;100872.22;4881809;29;20212;-81
2021/12/05 12:43:47;;;;;;;6.18;5.38;;;;;;;0.79;100.00;100869.56;4881680;29;20565;-80
2021/12/05 12:46:27;;;;;;;6.28;5.55;;;;;;;0.78;100.00;100868.66;4881446;29;20177;-80
2021/12/05 12:48:57;;;;;;;6.65;5.95;;;;;;;0.82;100.00;100881.00;4896014;29;20181;-80
2021/12/05 12:51:29;;;;;;;7.85;6.38;;;;;;;0.77;100.00;100880.13;4881682;29;20241;-81
2021/12/05 12:53:57;;;;;;;8.10;5.22;;;;;;;0.75;100.00;100881.00;4879708;29;20621;-80
2021/12/05 12:56:23;;;;;;;8.50;5.97;;;;;;;0.76;100.00;100875.69;4864642;29;20632;-80
2021/12/05 12:59:06;;;;;;;6.25;4.85;;;;;;;0.78;100.00;100892.41;4863191;29;20174;-79
2021/12/05 13:02:01;;;;;;;6.10;5.28;;;;;;;0.79;100.00;100885.41;4861953;29;20209;-80
2021/12/05 13:04:37;;;;;;;6.65;5.50;;;;;;;0.86;100.00;100888.94;4860903;29;20218;-80
2021/12/05 13:10:02;;;;;;;6.47;4.95;;;;;;;0.87;100.00;100888.03;4862669;29;20206;-80
2021/12/05 13:12:49;;;;;;;6.75;4.78;;;;;;;0.81;100.00;100899.47;4860979;29;20154;-80
2021/12/05 13:15:40;;;;;;;5.72;4.80;;;;;;;0.79;100.00;100891.56;4860548;29;20225;-80
2021/12/05 13:18:13;;;;;;;5.40;4.00;;;;;;;0.79;100.00;100902.09;4844292;29;20166;-79
2021/12/05 13:20:41;;;;;;;7.03;4.95;;;;;;;0.77;100.00;100906.50;4860576;29;20624;-80
2021/12/05 13:23:15;;;;;;;5.95;5.05;;;;;;;0.82;100.00;100902.09;4861240;29;20194;-80
2021/12/05 13:26:06;;;;;;;7.03;4.97;;;;;;;0.82;100.00;100907.38;4860717;29;20672;-80
2021/12/05 13:28:44;;;;;;;6.88;5.22;;;;;;;0.79;100.00;100920.56;4844226;29;20670;-80
2021/12/05 13:31:28;;;;;;;6.78;5.45;;;;;;;0.77;100.00;100916.16;4844931;29;20548;-80
2021/12/05 13:34:28;;;;;;;5.65;4.82;;;;;;;0.83;100.00;100921.44;4859337;29;20557;-81
2021/12/05 13:36:53;;;;;;;7.15;5.75;;;;;;;0.80;100.00;100934.63;4843351;29;20205;-80
2021/12/05 13:39:55;;;;;;;6.38;5.78;;;;;;;0.84;100.00;100930.25;4859954;29;20215;-80
2021/12/05 13:42:22;;;;;;;9.82;5.43;;;;;;;0.90;100.00;100936.41;4860173;29;20735;-80
2021/12/05 13:45:00;;;;;;;8.20;6.13;;;;;;;0.94;100.00;100926.75;4872427;29;20692;-81
2021/12/05 13:47:41;;;;;;;6.97;5.65;;;;;;;1.01;100.00;100928.53;4883745;29;20241;-79
2021/12/05 13:50:19;;;;;;;9.35;5.97;;;;;;;0.98;100.00;100937.34;4892053;29;20196;-79
2021/12/05 13:52:56;;;;;;;7.93;6.00;;;;;;;0.94;100.00;100937.28;4881388;29;20324;-78
2021/12/05 13:55:46;;;;;;;11.80;6.70;;;;;;;0.96;100.00;100946.09;4897458;29;20270;-80
2021/12/05 13:58:30;;;;;;;8.88;6.85;;;;;;;0.99;100.00;100951.41;4855622;29;20276;-79
2021/12/05 14:01:04;;;;;;;9.07;6.72;;;;;;;0.99;100.00;100959.31;4874411;29;20253;-79
2021/12/05 14:03:37;;;;;;;9.23;6.50;;;;;;;1.03;100.00;100958.44;4878663;29;20215;-79
2021/12/05 14:06:03;;;;;;;10.05;7.10;;;;;;;1.04;100.00;100957.56;4867761;29;20196;-79
2021/12/05 14:08:29;;;;;;;7.90;6.80;;;;;;;1.09;100.00;100961.06;4895774;29;20240;-79
2021/12/05 14:10:55;;;;;;;9.13;6.90;;;;;;;1.08;100.00;100971.66;4897402;29;20199;-79
2021/12/05 14:13:21;;;;;;;8.52;7.07;;;;;;;1.14;100.00;100971.66;4896196;29;20176;-79
2021/12/05 14:15:56;;;;;;;10.57;7.40;;;;;;;1.11;100.00;100967.25;4897278;29;20169;-79
2021/12/05 14:18:22;;;;;;;8.75;7.28;;;;;;;1.15;100.00;100973.41;4879690;29;20259;-79
2021/12/05 14:20:48;;;;;;;10.73;7.90;;;;;;;1.22;100.00;100977.81;4896181;29;20789;-80
2021/12/05 14:23:20;;;;;;;8.70;7.72;;;;;;;1.14;100.00;100975.19;4898109;29;20309;-79
2021/12/05 14:25:47;;;;;;;10.63;7.35;;;;;;;1.21;100.00;100978.72;4898301;29;20176;-79
2021/12/05 14:28:13;;;;;;;9.80;7.10;;;;;;;1.22;100.00;100988.38;4895693;29;20180;-80
2021/12/05 14:30:40;;;;;;;9.32;7.75;;;;;;;1.22;100.00;100981.38;4897978;29;20747;-80
2021/12/05 14:33:06;;;;;;;10.77;8.52;;;;;;;1.26;100.00;100992.78;4894944;29;20623;-80
2021/12/05 14:35:35;;;;;;;14.65;10.40;;;;;;;1.24;100.00;100992.78;4896394;29;20287;-80
2021/12/05 14:38:02;;;;;;;14.40;10.07;;;;;;;1.31;100.00;100985.78;4896803;29;20208;-80
2021/12/05 14:40:30;;;;;;;16.75;11.80;;;;;;;1.27;100.00;100977.84;4896360;29;20217;-79
2021/12/05 14:43:04;;;;;;;16.42;12.27;;;;;;;1.30;100.00;100983.13;4896860;29;20682;-80
2021/12/05 14:45:32;;;;;;;15.95;11.75;;;;;;;1.31;100.00;100987.53;4896467;29;20205;-81
2021/12/05 14:48:02;;;;;;;14.32;10.68;;;;;;;1.33;100.00;100991.03;4896289;29;20193;-81
2021/12/05 14:50:31;;;;;;;14.05;10.82;;;;;;;1.34;100.00;100992.81;4896324;29;20199;-80
2021/12/05 14:53:02;;;;;;;14.55;10.85;;;;;;;1.33;100.00;101002.47;4871104;29;20238;-81
2021/12/05 14:55:31;;;;;;;16.80;11.23;;;;;;;1.34;100.00;101003.38;4872817;29;20249;-78
2021/12/05 14:58:03;;;;;;;15.45;11.55;;;;;;;1.42;100.00;100997.25;4885325;29;20193;-81
2021/12/05 15:00:32;;;;;;;16.35;11.02;;;;;;;1.43;100.00;101000.75;4884727;29;20583;-79
2021/12/05 15:03:18;;;;;;;17.73;12.43;;;;;;;1.42;100.00;101010.44;4898812;29;20730;-80
2021/12/05 15:05:51;;;;;;;16.27;11.80;;;;;;;1.43;100.00;101009.56;4902280;29;20267;-79
2021/12/05 15:08:20;;;;;;;19.17;13.20;;;;;;;1.48;100.00;101000.75;4903168;29;20268;-78
2021/12/05 15:10:52;;;;;;;15.55;12.40;;;;;;;1.51;100.00;101006.03;4861578;29;20205;-79
2021/12/05 15:13:17;;;;;;;14.18;10.75;;;;;;;1.54;100.00;101001.66;4881405;29;20185;-79
2021/12/05 15:15:43;;;;;;;16.30;11.98;;;;;;;1.58;100.00;101024.56;4867201;29;20589;-80
2021/12/05 15:18:23;;;;;;;16.20;11.82;;;;;;;1.57;100.00;101033.34;4880201;29;20174;-80
2021/12/05 15:20:48;;;;;;;19.23;13.05;;;;;;;1.61;100.00;101040.38;4864792;29;20335;-81
2021/12/05 15:23:14;;;;;;;19.70;11.13;;;;;;;1.65;100.00;101026.31;4878965;29;20296;-80
2021/12/05 15:25:41;;;;;;;15.38;12.10;;;;;;;1.71;100.00;101040.44;4879215;29;20647;-79
2021/12/05 15:28:09;;;;;;;18.52;12.27;;;;;;;1.67;100.00;101038.66;4881344;29;20180;-79
2021/12/05 15:30:42;;;;;;;17.83;11.80;;;;;;;1.73;100.00;101054.50;4886092;29;20209;-79
2021/12/05 15:33:16;;;;;;;18.65;12.32;;;;;;;1.75;100.00;101053.63;4881083;29;20166;-80
2021/12/05 15:35:43;;;;;;;16.55;10.52;;;;;;;1.81;100.00;101058.03;4879279;29;20189;-80
2021/12/05 15:38:11;;;;;;;14.10;9.93;;;;;;;1.86;100.00;101066.88;4878516;29;20198;-81
2021/12/05 15:40:42;;;;;;;18.40;11.20;;;;;;;1.90;100.00;101065.09;4879874;29;20197;-80
2021/12/05 15:43:11;;;;;;;11.63;9.77;;;;;;;1.96;100.00;101078.31;4880655;29;20190;-80
2021/12/05 15:45:39;;;;;;;12.63;8.20;;;;;;;2.15;100.00;101066.00;4863640;29;20205;-81
2021/12/05 15:48:05;;;;;;;13.32;9.40;;;;;;;2.12;100.00;101076.53;4879180;29;20195;-80
2021/12/05 15:50:34;;;;;;;13.18;8.13;;;;;;;2.20;100.00;101083.59;4863818;29;20201;-80
2021/12/05 15:53:03;;;;;;;8.10;5.65;;;;;;;2.35;100.00;101088.00;4865279;29;20185;-80
2021/12/05 15:55:42;;;;;;;6.25;4.15;;;;;;;2.41;100.00;101098.59;4864890;29;20227;-80
2021/12/05 15:58:20;;;;;;;3.92;3.05;;;;;;;2.58;100.00;101097.69;4849305;29;20165;-80
2021/12/05 16:00:50;;;;;;;8.45;3.97;;;;;;;2.62;100.00;101100.34;4881658;29;20201;-80
2021/12/05 16:03:24;;;;;;;9.68;4.10;;;;;;;2.64;100.00;101100.31;4879260;29;20229;-80
2021/12/05 16:05:59;;;;;;;8.90;3.22;;;;;;;2.72;100.00;101111.78;4864205;29;20188;-80
2021/12/05 16:08:28;;;;;;;5.63;2.95;;;;;;;2.68;100.00;101128.53;4880608;29;20609;-80
2021/12/05 16:10:57;;;;;;;5.45;3.10;;;;;;;2.70;100.00;101121.50;4848725;29;20206;-80
2021/12/05 16:13:33;;;;;;;4.57;2.50;;;;;;;2.73;100.00;101123.25;4864365;29;20178;-80
2021/12/05 16:16:27;;;;;;;6.50;3.03;;;;;;;2.75;100.00;101125.00;4864553;29;20233;-80
2021/12/05 16:18:56;;;;;;;4.40;2.65;;;;;;;2.77;100.00;101125.88;4878004;29;20201;-80
2021/12/05 16:21:21;;;;;;;5.80;2.78;;;;;;;2.80;100.00;101133.84;4881211;29;20201;-80
2021/12/05 16:23:49;;;;;;;7.97;3.33;;;;;;;2.82;100.00;101142.66;4864989;29;20573;-79
2021/12/05 16:26:34;;;;;;;5.40;3.08;;;;;;;2.86;100.00;101132.91;4864717;29;20249;-79
2021/12/05 16:29:03;;;;;;;10.60;3.63;;;;;;;2.85;100.00;101136.47;4882125;29;20162;-79
2021/12/05 16:31:47;;;;;;;6.63;3.05;;;;;;;2.92;100.00;101148.78;4881321;29;20269;-79
2021/12/05 16:34:17;;;;;;;6.15;3.30;;;;;;;2.97;100.00;101151.44;4867592;29;20185;-79
2021/12/05 16:36:52;;;;;;;6.82;3.17;;;;;;;3.01;100.00;101147.91;4877997;29;20620;-80
2021/12/05 16:39:22;;;;;;;7.68;3.92;;;;;;;3.00;100.00;101154.09;4876104;29;20225;-80
2021/12/05 16:41:53;;;;;;;10.85;3.90;;;;;;;3.01;100.00;101156.72;4870041;29;20193;-80
2021/12/05 16:44:24;;;;;;;9.20;4.40;;;;;;;3.05;100.00;101168.19;4888900;29;20217;-79
2021/12/05 16:46:55;;;;;;;10.48;5.00;;;;;;;3.07;100.00;101167.28;4873864;29;20177;-79
2021/12/05 16:49:35;;;;;;;10.57;5.15;;;;;;;3.04;100.00;101175.25;4874808;29;20192;-79
2021/12/05 16:52:06;;;;;;;10.95;5.22;;;;;;;3.07;100.00;101172.59;4881807;29;20273;-79
2021/12/05 16:54:43;;;;;;;10.35;5.03;;;;;;;3.02;100.00;101168.22;4872475;29;20197;-79
2021/12/05 16:57:12;;;;;;;12.77;5.28;;;;;;;3.02;100.00;101178.78;4871611;29;20207;-79
2021/12/05 16:59:41;;;;;;;10.32;5.70;;;;;;;2.98;100.00;101185.84;4870491;29;20189;-79